Time;durP1;ratioP1;P1;durP2;ratioP2;P2;SDS_P1;SDS_P2;PMS_P1;PMS_P2;Temp;Humidity;BMP_temperature;BMP_pressure;BME280_temperature;BME280_humidity;BME280_pressure;Samples;Min_cycle;Max_cycle;Signal;HPM_P1;HPM_P2
2022/09/02 00:00:34;;;;;;;14.30;7.18;;;;;;;;;;5021057;28;19920;-66
2022/09/02 00:03:00;;;;;;;15.68;7.28;;;;;;;;;;5002826;28;20030;-66
2022/09/02 00:05:26;;;;;;;13.77;6.82;;;;;;;;;;5006239;28;20022;-66
2022/09/02 00:07:53;;;;;;;18.45;7.30;;;;;;;;;;5006553;28;20436;-66
2022/09/02 00:10:19;;;;;;;9.65;6.05;;;;;;;;;;5003578;28;20080;-66
2022/09/02 00:12:46;;;;;;;20.63;8.65;;;;;;;;;;5003384;28;20030;-66
2022/09/02 00:15:13;;;;;;;14.77;6.88;;;;;;;;;;5003462;28;20022;-66
2022/09/02 00:17:39;;;;;;;14.45;6.70;;;;;;;;;;5006623;28;20034;-66
2022/09/02 00:20:05;;;;;;;17.90;7.07;;;;;;;;;;5006295;28;20034;-66
2022/09/02 00:22:32;;;;;;;8.32;5.80;;;;;;;;;;5003156;28;20049;-66
2022/09/02 00:24:58;;;;;;;12.38;6.47;;;;;;;;;;5003069;28;20097;-66
2022/09/02 00:27:24;;;;;;;10.32;6.55;;;;;;;;;;5006938;28;20029;-66
2022/09/02 00:29:50;;;;;;;13.23;7.10;;;;;;;;;;5000696;28;20070;-66
2022/09/02 00:32:18;;;;;;;19.10;7.15;;;;;;;;;;5009694;28;20026;-66
2022/09/02 00:34:44;;;;;;;15.57;7.00;;;;;;;;;;4999521;28;20018;-66
2022/09/02 00:37:12;;;;;;;13.63;7.32;;;;;;;;;;5006333;28;20165;-66
2022/09/02 00:39:38;;;;;;;12.02;6.28;;;;;;;;;;5006761;28;20026;-66
2022/09/02 00:42:05;;;;;;;12.88;6.25;;;;;;;;;;4999243;28;20124;-66
2022/09/02 00:44:32;;;;;;;11.60;6.97;;;;;;;;;;5010641;28;20061;-66
2022/09/02 00:46:59;;;;;;;9.23;6.60;;;;;;;;;;5001163;28;20045;-66
2022/09/02 00:49:31;;;;;;;9.32;6.78;;;;;;;;;;5039481;28;20026;-66
2022/09/02 00:52:00;;;;;;;14.75;7.05;;;;;;;;;;5014162;28;20389;-66
2022/09/02 00:54:29;;;;;;;18.27;7.10;;;;;;;;;;5010542;28;20040;-66
2022/09/02 00:56:55;;;;;;;14.63;6.68;;;;;;;;;;4999979;28;20021;-66
2022/09/02 00:59:38;;;;;;;14.13;6.15;;;;;;;;;;5004685;28;20034;-66
2022/09/02 01:02:06;;;;;;;11.93;6.75;;;;;;;;;;5007788;28;20075;-66
2022/09/02 01:04:32;;;;;;;11.88;6.47;;;;;;;;;;4997449;28;20030;-66
2022/09/02 01:06:58;;;;;;;12.30;6.28;;;;;;;;;;5023218;28;20104;-66
2022/09/02 01:09:24;;;;;;;12.63;6.47;;;;;;;;;;5003519;28;20051;-66
2022/09/02 01:11:52;;;;;;;21.25;7.07;;;;;;;;;;5001175;28;20034;-66
2022/09/02 01:14:18;;;;;;;16.65;7.13;;;;;;;;;;5008691;28;20355;-66
2022/09/02 01:16:49;;;;;;;15.98;6.68;;;;;;;;;;5000706;28;20483;-66
2022/09/02 01:19:18;;;;;;;15.10;7.15;;;;;;;;;;5016284;28;20057;-66
2022/09/02 01:21:48;;;;;;;10.50;7.00;;;;;;;;;;4997026;28;20037;-66
2022/09/02 01:24:14;;;;;;;14.88;6.93;;;;;;;;;;5037604;28;20041;-66
2022/09/02 01:26:40;;;;;;;12.93;7.35;;;;;;;;;;4992835;28;20060;-66
2022/09/02 01:29:06;;;;;;;13.73;6.68;;;;;;;;;;4993831;28;20030;-66
2022/09/02 01:31:32;;;;;;;10.90;7.07;;;;;;;;;;4992587;28;20034;-66
2022/09/02 01:33:59;;;;;;;10.85;6.78;;;;;;;;;;4993818;28;20023;-66
2022/09/02 01:36:25;;;;;;;11.80;7.63;;;;;;;;;;4993398;28;20084;-66
2022/09/02 01:38:52;;;;;;;13.13;7.20;;;;;;;;;;4993951;28;20030;-66
2022/09/02 01:41:18;;;;;;;13.20;6.82;;;;;;;;;;5024981;28;20022;-66
2022/09/02 01:43:44;;;;;;;11.02;7.18;;;;;;;;;;5013223;28;20034;-66
2022/09/02 01:46:10;;;;;;;9.80;7.15;;;;;;;;;;4999308;28;20045;-66
2022/09/02 01:48:36;;;;;;;10.75;6.88;;;;;;;;;;5009455;28;20041;-66
2022/09/02 01:51:03;;;;;;;17.88;7.32;;;;;;;;;;4998943;28;20497;-66
2022/09/02 01:53:31;;;;;;;12.50;6.43;;;;;;;;;;5004476;28;20030;-66
2022/09/02 01:55:58;;;;;;;14.35;6.90;;;;;;;;;;5004563;28;20026;-66
2022/09/02 01:58:24;;;;;;;12.43;6.57;;;;;;;;;;4997212;28;20034;-66
2022/09/02 02:00:50;;;;;;;14.30;7.05;;;;;;;;;;5044196;28;20018;-66
2022/09/02 02:03:16;;;;;;;13.57;7.00;;;;;;;;;;5005328;28;20041;-66
2022/09/02 02:05:43;;;;;;;8.90;6.60;;;;;;;;;;5003432;28;20062;-66
2022/09/02 02:08:13;;;;;;;8.93;6.32;;;;;;;;;;5030217;28;20491;-66
2022/09/02 02:10:41;;;;;;;9.90;6.93;;;;;;;;;;5008944;28;20418;-66
2022/09/02 02:13:08;;;;;;;12.35;6.30;;;;;;;;;;4997349;28;20022;-66
2022/09/02 02:15:37;;;;;;;15.13;6.53;;;;;;;;;;5035665;28;20061;-66
2022/09/02 02:18:03;;;;;;;12.10;6.28;;;;;;;;;;5005963;28;20030;-66
2022/09/02 02:20:29;;;;;;;11.15;6.25;;;;;;;;;;4996783;28;20039;-66
2022/09/02 02:22:55;;;;;;;12.10;6.57;;;;;;;;;;5007851;28;20018;-66
2022/09/02 02:25:22;;;;;;;12.77;6.30;;;;;;;;;;4999553;28;20040;-66
2022/09/02 02:27:51;;;;;;;13.48;6.72;;;;;;;;;;5041837;28;20486;-66
2022/09/02 02:30:18;;;;;;;11.45;6.78;;;;;;;;;;5012488;28;20389;-66
2022/09/02 02:32:48;;;;;;;13.30;6.78;;;;;;;;;;5008618;28;20030;-66
2022/09/02 02:35:18;;;;;;;13.50;7.10;;;;;;;;;;5017751;28;20113;-66
2022/09/02 02:37:47;;;;;;;12.95;6.55;;;;;;;;;;5034549;28;20025;-66
2022/09/02 02:40:15;;;;;;;13.50;6.43;;;;;;;;;;5004893;28;20594;-66
2022/09/02 02:42:41;;;;;;;11.23;6.38;;;;;;;;;;5027668;28;20429;-66
2022/09/02 02:45:08;;;;;;;13.30;7.07;;;;;;;;;;5008302;28;20034;-66
2022/09/02 02:47:35;;;;;;;15.18;7.63;;;;;;;;;;4999621;28;20025;-66
2022/09/02 02:50:02;;;;;;;18.45;8.38;;;;;;;;;;5016846;28;20026;-66
2022/09/02 02:52:28;;;;;;;13.73;9.05;;;;;;;;;;5015344;28;20037;-66
2022/09/02 02:54:55;;;;;;;16.27;8.88;;;;;;;;;;4995577;28;20026;-66
2022/09/02 02:57:21;;;;;;;18.00;10.07;;;;;;;;;;5006928;28;20015;-66
2022/09/02 02:59:47;;;;;;;20.05;11.35;;;;;;;;;;5001867;28;20080;-66
2022/09/02 03:02:13;;;;;;;17.00;10.68;;;;;;;;;;5003483;28;20033;-66
2022/09/02 03:04:40;;;;;;;17.73;10.20;;;;;;;;;;5019339;28;20026;-66
2022/09/02 03:07:06;;;;;;;21.65;11.20;;;;;;;;;;5007429;28;20397;-66
2022/09/02 03:09:33;;;;;;;21.95;10.98;;;;;;;;;;4998088;28;20483;-66
2022/09/02 03:11:59;;;;;;;15.23;9.52;;;;;;;;;;5000368;28;20390;-66
2022/09/02 03:14:26;;;;;;;15.05;7.78;;;;;;;;;;5007125;28;20026;-66
2022/09/02 03:16:52;;;;;;;14.98;8.48;;;;;;;;;;5027340;28;20049;-66
2022/09/02 03:19:19;;;;;;;14.98;8.68;;;;;;;;;;5007303;28;20073;-66
2022/09/02 03:21:45;;;;;;;18.45;8.18;;;;;;;;;;5001000;28;20042;-66
2022/09/02 03:24:12;;;;;;;14.07;8.80;;;;;;;;;;5000170;28;20426;-66
2022/09/02 03:26:40;;;;;;;14.93;8.40;;;;;;;;;;5014462;28;20091;-66
2022/09/02 03:29:06;;;;;;;18.15;9.13;;;;;;;;;;5007672;28;20478;-66
2022/09/02 03:31:33;;;;;;;17.23;8.77;;;;;;;;;;4999064;28;20095;-66
2022/09/02 03:33:59;;;;;;;15.20;8.70;;;;;;;;;;5033795;28;20038;-66
2022/09/02 03:36:28;;;;;;;15.20;8.57;;;;;;;;;;5012860;28;20038;-66
2022/09/02 03:38:56;;;;;;;14.55;7.85;;;;;;;;;;5026915;28;20038;-66
2022/09/02 03:41:23;;;;;;;16.23;8.77;;;;;;;;;;5038753;28;20113;-66
2022/09/02 03:43:50;;;;;;;19.73;9.07;;;;;;;;;;4993982;28;20113;-66
2022/09/02 03:46:17;;;;;;;15.60;8.90;;;;;;;;;;5038985;28;20489;-66
2022/09/02 03:48:44;;;;;;;12.05;7.90;;;;;;;;;;4999605;28;20085;-66
2022/09/02 03:51:12;;;;;;;15.27;8.88;;;;;;;;;;4997728;28;20018;-66
2022/09/02 03:53:38;;;;;;;18.35;8.60;;;;;;;;;;5040266;28;20030;-66
2022/09/02 03:56:07;;;;;;;14.73;8.45;;;;;;;;;;5004404;28;20026;-66
2022/09/02 03:58:35;;;;;;;15.20;8.27;;;;;;;;;;5018810;28;20065;-66
2022/09/02 04:01:02;;;;;;;16.90;9.20;;;;;;;;;;5032803;28;20026;-66
2022/09/02 04:03:30;;;;;;;20.20;10.18;;;;;;;;;;5004908;28;20030;-66
2022/09/02 04:05:57;;;;;;;18.70;9.82;;;;;;;;;;5001731;28;20068;-66
2022/09/02 04:08:26;;;;;;;26.35;10.38;;;;;;;;;;5000988;28;20046;-66
2022/09/02 04:10:55;;;;;;;22.33;9.30;;;;;;;;;;5008840;28;20070;-66
2022/09/02 04:13:21;;;;;;;23.35;9.18;;;;;;;;;;5008011;28;20026;-66
2022/09/02 04:15:48;;;;;;;24.85;10.55;;;;;;;;;;5002404;28;20026;-66
2022/09/02 04:18:16;;;;;;;30.23;10.32;;;;;;;;;;5001907;28;20033;-66
2022/09/02 04:20:43;;;;;;;18.60;9.45;;;;;;;;;;5007164;28;20061;-66
2022/09/02 04:23:09;;;;;;;22.83;9.90;;;;;;;;;;4996979;28;20027;-66
2022/09/02 04:25:44;;;;;;;26.25;9.60;;;;;;;;;;5041278;28;20037;-66
2022/09/02 04:28:11;;;;;;;27.15;9.07;;;;;;;;;;5003497;28;20038;-66
2022/09/02 04:30:39;;;;;;;22.73;9.00;;;;;;;;;;5044216;28;20034;-66
2022/09/02 04:33:05;;;;;;;21.77;9.18;;;;;;;;;;4996802;28;20042;-66
2022/09/02 04:35:34;;;;;;;19.90;7.93;;;;;;;;;;5042576;28;20014;-66
2022/09/02 04:38:00;;;;;;;17.35;8.35;;;;;;;;;;5038386;28;20031;-66
2022/09/02 04:40:27;;;;;;;28.77;8.80;;;;;;;;;;5003769;28;20072;-66
2022/09/02 04:42:54;;;;;;;23.35;9.35;;;;;;;;;;5002726;28;20109;-66
2022/09/02 04:45:20;;;;;;;17.60;8.77;;;;;;;;;;5009190;28;20363;-66
2022/09/02 04:47:47;;;;;;;21.48;8.73;;;;;;;;;;5035105;28;20026;-66
2022/09/02 04:50:14;;;;;;;28.38;9.45;;;;;;;;;;5002911;28;20115;-66
2022/09/02 04:52:56;;;;;;;21.50;9.43;;;;;;;;;;5007621;28;20131;-66
2022/09/02 04:55:24;;;;;;;23.92;9.35;;;;;;;;;;5010068;28;20034;-66
2022/09/02 04:57:51;;;;;;;27.30;10.73;;;;;;;;;;5035875;28;20103;-66
2022/09/02 05:00:18;;;;;;;19.80;9.38;;;;;;;;;;5011130;28;20101;-66
2022/09/02 05:02:47;;;;;;;17.35;9.15;;;;;;;;;;5011157;28;20061;-66
2022/09/02 05:05:13;;;;;;;20.75;9.90;;;;;;;;;;5009397;28;20050;-66
2022/09/02 05:07:40;;;;;;;28.58;11.13;;;;;;;;;;5015491;28;20040;-66
2022/09/02 05:10:08;;;;;;;24.90;10.00;;;;;;;;;;5032619;28;20034;-66
2022/09/02 05:12:39;;;;;;;19.25;9.57;;;;;;;;;;5004184;28;20022;-66
2022/09/02 05:15:07;;;;;;;17.42;9.48;;;;;;;;;;5009399;28;20493;-66
2022/09/02 05:17:35;;;;;;;23.13;11.57;;;;;;;;;;5026553;28;20026;-66
2022/09/02 05:20:03;;;;;;;17.50;10.93;;;;;;;;;;5024780;28;20128;-66
2022/09/02 05:22:32;;;;;;;29.05;10.95;;;;;;;;;;5009333;28;20088;-66
2022/09/02 05:24:59;;;;;;;21.98;10.82;;;;;;;;;;5006507;28;20042;-66
2022/09/02 05:27:27;;;;;;;28.13;10.65;;;;;;;;;;5033083;28;20046;-65
2022/09/02 05:29:55;;;;;;;14.63;9.70;;;;;;;;;;5005606;28;20505;-65
2022/09/02 05:32:22;;;;;;;20.42;10.68;;;;;;;;;;5002367;28;20100;-66
2022/09/02 05:34:50;;;;;;;18.95;9.90;;;;;;;;;;5010252;28;20032;-66
2022/09/02 05:37:16;;;;;;;31.48;12.05;;;;;;;;;;5003948;28;20110;-65
2022/09/02 05:39:42;;;;;;;22.77;10.70;;;;;;;;;;4999346;28;20057;-65
2022/09/02 05:42:09;;;;;;;19.35;11.23;;;;;;;;;;5004827;28;20084;-66
2022/09/02 05:44:36;;;;;;;27.05;10.48;;;;;;;;;;5015628;28;20566;-65
2022/09/02 05:47:03;;;;;;;25.15;10.80;;;;;;;;;;5006524;28;20057;-66
2022/09/02 05:49:31;;;;;;;19.80;11.05;;;;;;;;;;5005708;28;20037;-66
2022/09/02 05:52:08;;;;;;;22.40;11.65;;;;;;;;;;5003771;28;20066;-65
2022/09/02 05:54:41;;;;;;;21.08;10.82;;;;;;;;;;5008409;28;20034;-66
2022/09/02 05:57:13;;;;;;;21.40;11.52;;;;;;;;;;4996763;28;20030;-66
2022/09/02 05:59:44;;;;;;;24.80;12.68;;;;;;;;;;4998930;28;20034;-66
2022/09/02 06:02:16;;;;;;;24.45;12.75;;;;;;;;;;5007475;28;20112;-65
2022/09/02 06:04:45;;;;;;;37.47;14.68;;;;;;;;;;5005864;28;20026;-65
2022/09/02 06:07:13;;;;;;;26.35;13.85;;;;;;;;;;5011699;28;20414;-66
2022/09/02 06:09:39;;;;;;;21.42;13.35;;;;;;;;;;5042707;28;20033;-65
2022/09/02 06:12:07;;;;;;;23.60;14.27;;;;;;;;;;5003410;28;20107;-66
2022/09/02 06:14:36;;;;;;;22.75;15.48;;;;;;;;;;5012303;28;20025;-66
2022/09/02 06:17:05;;;;;;;23.98;13.95;;;;;;;;;;5008709;28;20354;-65
2022/09/02 06:19:51;;;;;;;27.60;15.65;;;;;;;;;;5007190;28;20212;-65
2022/09/02 06:22:18;;;;;;;33.50;18.23;;;;;;;;;;5040439;28;20034;-65
2022/09/02 06:24:46;;;;;;;34.92;18.58;;;;;;;;;;5008177;28;20046;-65
2022/09/02 06:27:18;;;;;;;32.58;17.98;;;;;;;;;;5000440;28;20062;-66
2022/09/02 06:29:48;;;;;;;43.38;19.30;;;;;;;;;;4999559;28;20030;-66
2022/09/02 06:32:19;;;;;;;36.13;18.27;;;;;;;;;;5008455;28;20034;-66
2022/09/02 06:34:47;;;;;;;34.38;19.67;;;;;;;;;;5024855;28;20077;-66
2022/09/02 06:37:14;;;;;;;37.75;19.38;;;;;;;;;;5002633;28;20010;-65
2022/09/02 06:39:43;;;;;;;40.55;20.13;;;;;;;;;;5007172;28;20038;-66
2022/09/02 06:42:11;;;;;;;31.15;19.95;;;;;;;;;;5007041;28;20029;-66
2022/09/02 06:44:46;;;;;;;30.38;19.35;;;;;;;;;;4999646;28;20045;-65
2022/09/02 06:47:12;;;;;;;28.60;18.10;;;;;;;;;;5005978;28;20052;-65
2022/09/02 06:49:38;;;;;;;36.97;19.45;;;;;;;;;;4999787;28;20125;-66
2022/09/02 06:52:05;;;;;;;30.75;19.25;;;;;;;;;;5006327;28;20034;-66
2022/09/02 06:54:35;;;;;;;30.90;18.13;;;;;;;;;;5000211;28;20022;-65
2022/09/02 06:57:09;;;;;;;26.33;16.63;;;;;;;;;;5004301;28;20044;-66
2022/09/02 06:59:37;;;;;;;30.17;15.65;;;;;;;;;;5003173;28;20045;-66
2022/09/02 07:02:04;;;;;;;30.92;16.65;;;;;;;;;;4999520;28;20055;-65
2022/09/02 07:07:19;;;;;;;25.67;16.70;;;;;;;;;;5003453;28;20102;-66
2022/09/02 07:09:56;;;;;;;28.27;17.10;;;;;;;;;;5007391;28;20034;-66
2022/09/02 07:12:25;;;;;;;29.08;15.50;;;;;;;;;;5001932;28;20394;-66
2022/09/02 07:14:57;;;;;;;34.60;16.98;;;;;;;;;;5006766;28;20031;-65
2022/09/02 07:17:29;;;;;;;37.83;19.53;;;;;;;;;;5024485;28;20034;-66
2022/09/02 07:20:00;;;;;;;32.72;20.08;;;;;;;;;;5042530;28;20044;-66
2022/09/02 07:22:29;;;;;;;40.47;20.70;;;;;;;;;;5004768;28;20033;-66
2022/09/02 07:24:57;;;;;;;33.08;21.00;;;;;;;;;;5007760;28;20030;-66
2022/09/02 07:27:25;;;;;;;34.60;19.77;;;;;;;;;;5012589;28;20025;-66
2022/09/02 07:29:51;;;;;;;36.90;19.85;;;;;;;;;;5014196;28;20120;-66
2022/09/02 07:32:18;;;;;;;35.70;20.55;;;;;;;;;;5012550;28;20103;-66
2022/09/02 07:34:44;;;;;;;30.05;19.38;;;;;;;;;;5010217;28;20414;-66
2022/09/02 07:37:12;;;;;;;27.63;19.10;;;;;;;;;;5037615;28;20022;-66
2022/09/02 07:39:42;;;;;;;37.13;19.90;;;;;;;;;;5005475;28;20029;-65
2022/09/02 07:42:10;;;;;;;29.10;18.85;;;;;;;;;;5007877;28;20540;-66
2022/09/02 07:44:36;;;;;;;29.20;17.80;;;;;;;;;;5009040;28;20034;-66
2022/09/02 07:47:05;;;;;;;28.67;18.15;;;;;;;;;;5026504;28;20049;-66
2022/09/02 07:49:32;;;;;;;33.15;17.60;;;;;;;;;;5005631;28;20077;-65
2022/09/02 07:51:58;;;;;;;26.52;16.50;;;;;;;;;;5038447;28;20129;-66
2022/09/02 07:54:25;;;;;;;27.77;17.00;;;;;;;;;;5004128;28;20033;-66
2022/09/02 07:56:53;;;;;;;27.00;16.73;;;;;;;;;;5009490;28;20034;-66
2022/09/02 07:59:20;;;;;;;26.13;16.58;;;;;;;;;;5021443;28;20497;-66
2022/09/02 08:01:50;;;;;;;23.30;15.40;;;;;;;;;;5003966;28;20041;-66
2022/09/02 08:04:17;;;;;;;27.40;15.68;;;;;;;;;;5009146;28;20026;-66
2022/09/02 08:06:44;;;;;;;30.95;16.02;;;;;;;;;;5005285;28;20092;-66
2022/09/02 08:09:11;;;;;;;27.38;16.20;;;;;;;;;;5007904;28;20612;-66
2022/09/02 08:11:41;;;;;;;24.13;14.82;;;;;;;;;;5008870;28;20018;-66
2022/09/02 08:14:08;;;;;;;22.23;14.07;;;;;;;;;;5004129;28;20076;-66
2022/09/02 08:16:35;;;;;;;22.13;16.00;;;;;;;;;;5008863;28;20038;-66
2022/09/02 08:19:01;;;;;;;23.92;15.15;;;;;;;;;;5007539;28;20508;-66
2022/09/02 08:21:28;;;;;;;25.75;15.80;;;;;;;;;;5008236;28;20024;-66
2022/09/02 08:23:57;;;;;;;25.88;14.60;;;;;;;;;;5008272;28;20034;-66
2022/09/02 08:26:27;;;;;;;21.88;14.07;;;;;;;;;;5022873;28;20108;-66
2022/09/02 08:28:53;;;;;;;25.67;15.48;;;;;;;;;;5006943;28;20029;-66
2022/09/02 08:31:19;;;;;;;19.67;13.80;;;;;;;;;;5004599;28;20026;-66
2022/09/02 08:33:45;;;;;;;20.38;14.30;;;;;;;;;;5006376;28;20029;-66
2022/09/02 08:36:13;;;;;;;25.33;15.25;;;;;;;;;;5005820;28;20044;-66
2022/09/02 08:38:40;;;;;;;27.13;13.80;;;;;;;;;;5007141;28;20437;-66
2022/09/02 08:41:21;;;;;;;25.75;12.82;;;;;;;;;;5007189;28;20025;-66
2022/09/02 08:43:49;;;;;;;19.77;13.23;;;;;;;;;;5007919;28;20022;-66
2022/09/02 08:46:16;;;;;;;21.55;13.48;;;;;;;;;;5003970;28;20021;-66
2022/09/02 08:48:43;;;;;;;28.13;13.23;;;;;;;;;;5008944;28;20073;-66
2022/09/02 08:51:12;;;;;;;18.33;11.73;;;;;;;;;;5007655;28;20025;-66
2022/09/02 08:53:45;;;;;;;17.95;12.05;;;;;;;;;;5011328;28;20127;-66
2022/09/02 08:56:13;;;;;;;19.92;10.75;;;;;;;;;;5012928;28;20022;-66
2022/09/02 08:58:42;;;;;;;16.63;11.48;;;;;;;;;;5020815;28;20485;-66
2022/09/02 09:01:32;;;;;;;23.17;11.57;;;;;;;;;;5003485;28;20509;-66
2022/09/02 09:04:20;;;;;;;17.25;10.27;;;;;;;;;;5004778;28;20383;-66
2022/09/02 09:07:04;;;;;;;18.33;10.93;;;;;;;;;;5007380;28;20065;-66
2022/09/02 09:09:49;;;;;;;20.13;12.95;;;;;;;;;;5011807;28;20042;-66
2022/09/02 09:12:20;;;;;;;17.95;10.93;;;;;;;;;;5003963;28;20022;-66
2022/09/02 09:14:50;;;;;;;21.50;11.57;;;;;;;;;;5011952;28;20026;-66
2022/09/02 09:17:26;;;;;;;18.38;11.88;;;;;;;;;;5007513;28;20034;-66
2022/09/02 09:19:53;;;;;;;22.88;11.40;;;;;;;;;;5011995;28;20041;-66
2022/09/02 09:22:20;;;;;;;16.55;10.77;;;;;;;;;;5011860;28;20034;-66
2022/09/02 09:24:48;;;;;;;16.77;10.18;;;;;;;;;;5010033;28;20034;-66
2022/09/02 09:27:15;;;;;;;13.23;10.15;;;;;;;;;;5012047;28;20053;-66
2022/09/02 09:29:41;;;;;;;15.00;10.15;;;;;;;;;;5009770;28;20026;-66
2022/09/02 09:32:15;;;;;;;16.15;9.93;;;;;;;;;;4997508;28;20018;-66
2022/09/02 09:34:55;;;;;;;17.90;10.05;;;;;;;;;;5000566;28;20038;-66
2022/09/02 09:37:41;;;;;;;15.07;9.88;;;;;;;;;;5008087;28;20117;-66
2022/09/02 09:40:22;;;;;;;20.75;10.15;;;;;;;;;;5001453;28;20023;-66
2022/09/02 09:43:09;;;;;;;17.95;10.43;;;;;;;;;;4994648;28;20089;-66
2022/09/02 09:45:36;;;;;;;18.25;10.63;;;;;;;;;;5007827;28;20438;-66
2022/09/02 09:48:06;;;;;;;13.57;10.82;;;;;;;;;;5003313;28;20040;-66
2022/09/02 09:50:32;;;;;;;14.63;10.25;;;;;;;;;;5003650;28;20068;-66
2022/09/02 09:53:17;;;;;;;17.25;10.60;;;;;;;;;;5003622;28;20565;-66
2022/09/02 09:55:57;;;;;;;16.00;9.90;;;;;;;;;;4999287;28;20083;-66
2022/09/02 09:58:26;;;;;;;19.17;11.57;;;;;;;;;;5003254;28;20037;-65
2022/09/02 10:00:55;;;;;;;15.85;9.68;;;;;;;;;;5004950;28;20563;-66
2022/09/02 10:03:24;;;;;;;14.90;10.77;;;;;;;;;;5009589;28;20030;-66
2022/09/02 10:05:54;;;;;;;28.05;12.30;;;;;;;;;;5001603;28;20039;-65
2022/09/02 10:08:22;;;;;;;18.75;12.23;;;;;;;;;;5006899;28;20049;-66
2022/09/02 10:11:02;;;;;;;18.42;11.48;;;;;;;;;;5008888;28;20050;-66
2022/09/02 10:13:35;;;;;;;19.48;13.35;;;;;;;;;;4998308;28;20031;-66
2022/09/02 10:16:25;;;;;;;22.85;13.48;;;;;;;;;;5000996;28;20038;-66
2022/09/02 10:19:01;;;;;;;23.77;13.57;;;;;;;;;;5002597;28;20042;-66
2022/09/02 10:21:27;;;;;;;24.48;14.70;;;;;;;;;;5008485;28;20386;-65
2022/09/02 10:24:12;;;;;;;23.92;14.38;;;;;;;;;;5003245;28;20034;-65
2022/09/02 10:26:49;;;;;;;19.48;13.50;;;;;;;;;;5006533;28;20030;-66
2022/09/02 10:29:18;;;;;;;22.35;10.95;;;;;;;;;;5011161;28;20033;-66
2022/09/02 10:31:55;;;;;;;20.83;9.65;;;;;;;;;;4997278;28;20022;-66
2022/09/02 10:34:27;;;;;;;26.15;13.40;;;;;;;;;;5011009;28;20026;-66
2022/09/02 10:37:09;;;;;;;27.52;15.48;;;;;;;;;;5002700;28;20041;-65
2022/09/02 10:39:54;;;;;;;33.53;19.52;;;;;;;;;;4999822;28;20030;-66
2022/09/02 10:42:38;;;;;;;29.77;16.90;;;;;;;;;;5002111;28;20061;-65
2022/09/02 10:45:11;;;;;;;29.42;17.70;;;;;;;;;;5003381;28;20128;-65
2022/09/02 10:47:39;;;;;;;32.50;19.45;;;;;;;;;;5003479;28;20038;-66
2022/09/02 10:50:24;;;;;;;34.92;19.05;;;;;;;;;;5001800;28;20122;-66
2022/09/02 10:52:53;;;;;;;31.25;17.67;;;;;;;;;;5003662;28;20506;-65
2022/09/02 10:55:33;;;;;;;26.25;16.95;;;;;;;;;;5015091;28;20029;-65
2022/09/02 10:58:12;;;;;;;26.95;16.40;;;;;;;;;;5003001;28;20036;-66
2022/09/02 11:00:41;;;;;;;23.70;14.48;;;;;;;;;;5014433;28;20036;-66
2022/09/02 11:03:22;;;;;;;23.63;13.40;;;;;;;;;;5021986;28;20173;-66
2022/09/02 11:05:48;;;;;;;25.20;14.32;;;;;;;;;;4999229;28;20058;-65
2022/09/02 11:08:24;;;;;;;24.15;13.25;;;;;;;;;;5004755;28;20076;-66
2022/09/02 11:10:59;;;;;;;20.15;12.27;;;;;;;;;;5006232;28;20041;-66
2022/09/02 11:13:30;;;;;;;28.20;14.90;;;;;;;;;;5005879;28;20068;-66
2022/09/02 11:16:01;;;;;;;22.52;14.05;;;;;;;;;;5002693;28;20030;-66
2022/09/02 11:18:32;;;;;;;28.17;17.00;;;;;;;;;;5006928;28;20523;-66
2022/09/02 11:21:17;;;;;;;28.67;15.48;;;;;;;;;;5003088;28;20655;-66
2022/09/02 11:23:46;;;;;;;32.78;14.98;;;;;;;;;;5008401;28;20026;-65
2022/09/02 11:26:22;;;;;;;22.70;14.13;;;;;;;;;;5004026;28;20493;-66
2022/09/02 11:29:21;;;;;;;22.63;13.57;;;;;;;;;;5004345;28;20042;-66
2022/09/02 11:31:47;;;;;;;23.77;14.77;;;;;;;;;;5007729;28;20117;-66
2022/09/02 11:34:19;;;;;;;32.30;14.82;;;;;;;;;;5008080;28;20019;-66
2022/09/02 11:36:47;;;;;;;25.90;14.63;;;;;;;;;;5008396;28;20064;-66
2022/09/02 11:39:18;;;;;;;34.55;19.65;;;;;;;;;;5011505;28;20084;-66
2022/09/02 11:42:02;;;;;;;25.67;16.77;;;;;;;;;;5011014;28;20041;-66
2022/09/02 11:44:47;;;;;;;37.55;20.02;;;;;;;;;;5009131;28;20399;-66
2022/09/02 11:47:25;;;;;;;31.65;17.20;;;;;;;;;;5011975;28;20053;-66
2022/09/02 11:49:51;;;;;;;31.52;18.92;;;;;;;;;;5010733;28;20049;-66
2022/09/02 11:52:25;;;;;;;30.83;16.65;;;;;;;;;;5003757;28;20041;-66
2022/09/02 11:55:00;;;;;;;30.73;16.85;;;;;;;;;;5005309;28;20422;-66
2022/09/02 11:57:26;;;;;;;29.45;16.33;;;;;;;;;;5008922;28;20029;-66
2022/09/02 11:59:52;;;;;;;27.85;16.70;;;;;;;;;;5010218;28;20112;-66
2022/09/02 12:02:36;;;;;;;30.10;16.63;;;;;;;;;;5011020;28;20458;-66
2022/09/02 12:05:21;;;;;;;26.83;16.75;;;;;;;;;;5008752;28;20034;-66
2022/09/02 12:07:48;;;;;;;32.13;18.42;;;;;;;;;;5006928;28;20045;-66
2022/09/02 12:10:33;;;;;;;34.72;18.10;;;;;;;;;;5006051;28;20040;-66
2022/09/02 12:13:01;;;;;;;25.48;15.00;;;;;;;;;;5002552;28;20021;-66
2022/09/02 12:15:28;;;;;;;32.45;16.63;;;;;;;;;;5039311;28;20504;-66
2022/09/02 12:17:58;;;;;;;26.23;15.38;;;;;;;;;;5006581;28;20034;-66
2022/09/02 12:20:36;;;;;;;24.33;15.65;;;;;;;;;;5007632;28;20485;-66
2022/09/02 12:23:02;;;;;;;26.58;14.32;;;;;;;;;;5010987;28;20036;-66
2022/09/02 12:25:28;;;;;;;33.33;17.95;;;;;;;;;;5001942;28;20533;-66
2022/09/02 12:28:14;;;;;;;29.77;16.67;;;;;;;;;;5006542;28;21378;-66
2022/09/02 12:31:01;;;;;;;23.08;13.98;;;;;;;;;;5002773;28;20072;-66
2022/09/02 12:33:33;;;;;;;25.60;14.13;;;;;;;;;;5003617;28;20026;-66
2022/09/02 12:36:00;;;;;;;22.45;13.45;;;;;;;;;;5002102;28;20073;-66
2022/09/02 12:38:27;;;;;;;26.63;14.25;;;;;;;;;;5007904;28;20030;-66
2022/09/02 12:41:03;;;;;;;25.42;14.27;;;;;;;;;;5011360;28;20049;-66
2022/09/02 12:43:34;;;;;;;24.05;14.57;;;;;;;;;;5005523;28;20057;-66
2022/09/02 12:46:16;;;;;;;21.23;12.30;;;;;;;;;;5006132;28;20030;-66
2022/09/02 12:48:48;;;;;;;23.30;12.73;;;;;;;;;;5010662;28;20053;-66
2022/09/02 12:51:34;;;;;;;21.73;13.00;;;;;;;;;;5009616;28;20029;-66
2022/09/02 12:54:01;;;;;;;28.73;16.60;;;;;;;;;;5009865;28;20508;-66
2022/09/02 12:56:27;;;;;;;21.67;12.48;;;;;;;;;;5010015;28;20022;-66
2022/09/02 12:58:54;;;;;;;21.13;12.68;;;;;;;;;;5008688;28;20124;-66
2022/09/02 13:01:24;;;;;;;21.50;13.18;;;;;;;;;;5013027;28;20033;-66
2022/09/02 13:03:56;;;;;;;22.17;12.25;;;;;;;;;;5005450;28;20026;-66
2022/09/02 13:06:31;;;;;;;22.02;11.23;;;;;;;;;;5004992;28;20137;-66
2022/09/02 13:09:00;;;;;;;20.38;10.93;;;;;;;;;;5006466;28;20030;-66
2022/09/02 13:11:30;;;;;;;28.05;12.18;;;;;;;;;;5004114;28;20026;-66
2022/09/02 13:14:15;;;;;;;26.45;13.50;;;;;;;;;;5013853;28;20072;-66
2022/09/02 13:17:00;;;;;;;26.52;13.10;;;;;;;;;;5009896;28;20026;-66
2022/09/02 13:19:45;;;;;;;24.67;13.10;;;;;;;;;;5002051;28;20389;-66
2022/09/02 13:22:23;;;;;;;25.35;15.05;;;;;;;;;;5001543;28;20023;-66
2022/09/02 13:24:58;;;;;;;21.70;14.77;;;;;;;;;;5010015;28;20441;-66
2022/09/02 13:27:45;;;;;;;26.25;15.48;;;;;;;;;;5006310;28;20041;-66
2022/09/02 13:30:25;;;;;;;29.52;16.88;;;;;;;;;;5013379;28;20494;-66
2022/09/02 13:32:55;;;;;;;37.17;17.23;;;;;;;;;;5003476;28;20088;-66
2022/09/02 13:35:24;;;;;;;24.58;16.25;;;;;;;;;;5002246;28;20034;-66
2022/09/02 13:37:59;;;;;;;34.60;17.65;;;;;;;;;;5006406;28;20702;-66
2022/09/02 13:40:25;;;;;;;30.13;16.02;;;;;;;;;;5003199;28;20045;-66
2022/09/02 13:42:53;;;;;;;25.45;15.32;;;;;;;;;;5006527;28;20104;-66
2022/09/02 13:45:20;;;;;;;25.08;15.43;;;;;;;;;;5003337;28;20033;-66
2022/09/02 13:47:49;;;;;;;29.90;17.30;;;;;;;;;;5004662;28;20025;-66
2022/09/02 13:50:17;;;;;;;28.63;15.68;;;;;;;;;;5007002;28;20041;-66
2022/09/02 13:52:45;;;;;;;26.77;16.33;;;;;;;;;;4998508;28;20026;-66
2022/09/02 13:55:13;;;;;;;29.05;16.63;;;;;;;;;;5008773;28;20026;-66
2022/09/02 13:57:43;;;;;;;25.13;14.73;;;;;;;;;;4999011;28;20022;-66
2022/09/02 14:00:12;;;;;;;24.05;15.25;;;;;;;;;;5003023;28;20041;-66
2022/09/02 14:02:38;;;;;;;26.02;17.23;;;;;;;;;;5006922;28;20485;-66
2022/09/02 14:05:06;;;;;;;28.27;15.32;;;;;;;;;;5007343;28;20064;-66
2022/09/02 14:07:36;;;;;;;25.70;15.32;;;;;;;;;;5005140;28;20405;-66
2022/09/02 14:10:05;;;;;;;26.45;15.68;;;;;;;;;;5001952;28;20088;-66
2022/09/02 14:12:32;;;;;;;22.70;13.25;;;;;;;;;;5007272;28;20021;-66
2022/09/02 14:14:58;;;;;;;25.95;14.85;;;;;;;;;;5007665;28;20501;-66
2022/09/02 14:17:25;;;;;;;26.92;14.18;;;;;;;;;;5007648;28;20026;-66
2022/09/02 14:20:07;;;;;;;30.85;14.98;;;;;;;;;;5005503;28;20545;-66
2022/09/02 14:22:34;;;;;;;28.63;14.60;;;;;;;;;;5004696;28;20026;-66
2022/09/02 14:25:07;;;;;;;26.67;13.73;;;;;;;;;;5006216;28;20030;-66
2022/09/02 14:27:33;;;;;;;;;;;;;;;;;;5005972;28;20024;-66
2022/09/02 14:29:59;;;;;;;29.83;14.90;;;;;;;;;;5009073;28;19917;-66
2022/09/02 14:32:28;;;;;;;24.48;12.93;;;;;;;;;;5007709;28;20445;-66
2022/09/02 14:35:27;;;;;;;21.60;13.38;;;;;;;;;;5010010;28;20033;-66
2022/09/02 14:37:58;;;;;;;24.25;12.85;;;;;;;;;;4981497;28;20097;-66
2022/09/02 14:40:53;;;;;;;26.67;14.45;;;;;;;;;;4982570;28;20065;-66